Time;durP1;ratioP1;P1;durP2;ratioP2;P2;SDS_P1;SDS_P2;PMS_P1;PMS_P2;Temp;Humidity;BMP_temperature;BMP_pressure;BME280_temperature;BME280_humidity;BME280_pressure;Samples;Min_cycle;Max_cycle;Signal;HPM_P1;HPM_P2
2021/04/08 00:00:39;;;;;;;9.00;2.58;;;3.60;99.90;;;;;;4160187;28;20037;-68
2021/04/08 00:02:44;;;;;;;8.93;2.95;;;3.60;99.90;;;;;;4159617;28;20140;-68
2021/04/08 00:04:44;;;;;;;9.70;2.65;;;3.60;99.90;;;;;;4174596;28;20064;-69
2021/04/08 00:06:45;;;;;;;9.45;2.65;;;3.60;99.90;;;;;;4158477;28;20046;-68
2021/04/08 00:08:45;;;;;;;7.38;2.67;;;3.50;99.90;;;;;;4159910;28;20121;-68
2021/04/08 00:10:46;;;;;;;9.25;2.83;;;3.50;99.90;;;;;;4174856;28;20083;-68
2021/04/08 00:12:47;;;;;;;6.43;2.45;;;3.60;99.90;;;;;;4191662;28;20483;-68
2021/04/08 00:14:47;;;;;;;7.28;3.00;;;3.50;99.90;;;;;;4162895;28;20077;-68
2021/04/08 00:16:48;;;;;;;9.25;3.63;;;3.50;99.90;;;;;;4160026;28;20045;-68
2021/04/08 00:18:49;;;;;;;7.30;2.65;;;3.50;99.90;;;;;;4159721;28;20167;-68
2021/04/08 00:20:49;;;;;;;6.22;2.38;;;3.40;99.90;;;;;;4163398;28;20394;-69
2021/04/08 00:22:50;;;;;;;7.68;2.55;;;3.40;99.90;;;;;;4159771;28;20044;-69
2021/04/08 00:24:50;;;;;;;4.75;2.33;;;3.40;99.90;;;;;;4160364;28;20042;-68
2021/04/08 00:26:51;;;;;;;10.52;3.10;;;3.40;99.90;;;;;;4159878;28;20037;-69
2021/04/08 00:28:52;;;;;;;5.75;2.58;;;3.40;99.90;;;;;;4159947;28;20037;-68
2021/04/08 00:30:52;;;;;;;6.20;2.72;;;3.40;99.90;;;;;;4159989;28;20043;-68
2021/04/08 00:32:53;;;;;;;6.55;2.45;;;3.50;99.90;;;;;;4159368;28;20044;-69
2021/04/08 00:34:53;;;;;;;7.57;2.95;;;3.50;99.90;;;;;;4191024;28;20074;-68
2021/04/08 00:36:54;;;;;;;9.45;2.88;;;3.50;99.90;;;;;;4160224;28;20034;-68
2021/04/08 00:38:54;;;;;;;7.13;2.28;;;3.40;99.90;;;;;;4164587;28;20167;-69
2021/04/08 00:40:55;;;;;;;4.75;2.65;;;3.40;99.90;;;;;;4169281;28;21669;-68
2021/04/08 00:42:56;;;;;;;10.50;2.67;;;3.40;99.90;;;;;;4159619;28;20520;-69
2021/04/08 00:44:57;;;;;;;8.25;2.42;;;3.40;99.90;;;;;;4160265;28;20041;-68
2021/04/08 00:46:57;;;;;;;8.48;2.72;;;3.40;99.90;;;;;;4159789;28;20037;-69
2021/04/08 00:48:58;;;;;;;9.50;2.95;;;3.40;99.90;;;;;;4159642;28;20037;-69
2021/04/08 00:50:59;;;;;;;5.15;2.10;;;3.40;99.90;;;;;;4159207;28;20080;-68
2021/04/08 00:53:06;;;;;;;8.70;2.72;;;3.40;99.90;;;;;;4159499;28;20029;-69
2021/04/08 00:55:07;;;;;;;5.95;2.33;;;3.40;99.90;;;;;;4159040;28;20060;-69
2021/04/08 00:57:07;;;;;;;10.27;2.78;;;3.50;99.90;;;;;;4159088;28;20038;-68
2021/04/08 00:59:08;;;;;;;7.75;2.63;;;3.50;99.90;;;;;;4161265;28;20037;-69
2021/04/08 01:01:11;;;;;;;5.28;2.33;;;3.50;99.90;;;;;;4158941;28;20033;-69
2021/04/08 01:03:12;;;;;;;;;;;3.50;99.90;;;;;;4159588;28;20034;-68
2021/04/08 01:05:12;;;;;;;5.97;2.53;;;3.50;99.90;;;;;;4158052;28;19979;-69
2021/04/08 01:07:13;;;;;;;7.40;2.75;;;3.50;99.90;;;;;;4159803;28;20040;-69
2021/04/08 01:09:14;;;;;;;10.57;3.15;;;3.50;99.90;;;;;;4163632;28;20033;-69
2021/04/08 01:11:15;;;;;;;8.35;2.60;;;3.50;99.90;;;;;;4141669;28;20055;-69
2021/04/08 01:13:18;;;;;;;8.57;2.80;;;3.50;99.90;;;;;;4174121;28;20033;-68
2021/04/08 01:15:19;;;;;;;6.70;2.42;;;3.50;99.90;;;;;;4158617;28;20037;-69
2021/04/08 01:17:33;;;;;;;8.00;2.72;;;3.50;99.90;;;;;;4174750;28;20044;-69
2021/04/08 01:20:24;;;;;;;9.15;3.22;;;3.50;99.90;;;;;;4159002;28;20106;-69
2021/04/08 01:22:31;;;;;;;6.25;2.90;;;3.50;99.90;;;;;;4105080;28;20112;-69
2021/04/08 01:24:31;;;;;;;4.68;2.40;;;3.50;99.90;;;;;;4158939;28;20084;-68
2021/04/08 01:26:51;;;;;;;8.30;3.22;;;3.50;99.90;;;;;;4158828;28;20034;-68
2021/04/08 01:29:08;;;;;;;6.97;3.03;;;3.50;99.90;;;;;;4158295;28;20041;-69
2021/04/08 01:31:15;;;;;;;8.85;3.15;;;3.50;99.90;;;;;;4152900;28;20033;-69
2021/04/08 01:33:18;;;;;;;8.73;3.30;;;3.50;99.90;;;;;;4140151;28;20101;-69
2021/04/08 01:35:26;;;;;;;9.02;2.63;;;3.40;99.90;;;;;;4161895;28;20034;-68
2021/04/08 01:37:35;;;;;;;8.13;2.92;;;3.50;99.90;;;;;;4158364;28;20112;-69
2021/04/08 01:39:38;;;;;;;7.97;3.35;;;3.50;99.90;;;;;;4158185;28;20053;-68
2021/04/08 01:41:42;;;;;;;6.63;3.10;;;3.40;99.90;;;;;;4158976;28;20041;-68
2021/04/08 01:43:45;;;;;;;8.50;2.60;;;3.40;99.90;;;;;;4158606;28;20493;-69
2021/04/08 01:45:50;;;;;;;11.65;3.42;;;3.40;99.90;;;;;;4175429;28;20095;-68
2021/04/08 01:47:53;;;;;;;7.38;3.20;;;3.30;99.90;;;;;;4159442;28;20099;-69
2021/04/08 01:49:55;;;;;;;11.40;2.90;;;3.30;99.90;;;;;;4162426;28;20025;-69
2021/04/08 01:51:57;;;;;;;8.23;3.10;;;3.40;99.90;;;;;;4157499;28;20033;-69
2021/04/08 01:54:00;;;;;;;11.65;2.70;;;3.40;99.90;;;;;;4158699;28;20041;-69
2021/04/08 01:56:02;;;;;;;10.82;3.38;;;3.30;99.90;;;;;;4158264;28;20112;-69
2021/04/08 01:58:05;;;;;;;7.40;2.65;;;3.30;99.90;;;;;;4158729;28;20049;-69
2021/04/08 02:00:10;;;;;;;12.10;2.85;;;3.40;99.90;;;;;;4158713;28;20509;-69
2021/04/08 02:02:12;;;;;;;8.68;2.55;;;3.30;99.90;;;;;;4158767;28;20124;-69
2021/04/08 02:04:14;;;;;;;7.47;2.75;;;3.30;99.90;;;;;;4155753;28;20045;-69
2021/04/08 02:06:16;;;;;;;8.18;2.60;;;3.30;99.90;;;;;;4154958;28;20434;-68
2021/04/08 02:08:19;;;;;;;9.63;2.65;;;3.30;99.90;;;;;;4159097;28;20033;-69
2021/04/08 02:10:22;;;;;;;4.78;2.38;;;3.30;99.90;;;;;;4158402;28;20144;-69
2021/04/08 02:12:24;;;;;;;8.77;2.50;;;3.30;99.90;;;;;;4158868;28;20083;-69
2021/04/08 02:14:26;;;;;;;;;;;3.30;99.90;;;;;;4161956;28;20791;-68
2021/04/08 02:16:26;;;;;;;6.72;2.10;;;3.30;99.90;;;;;;4193478;28;20388;-69
2021/04/08 02:18:29;;;;;;;5.85;1.92;;;3.40;99.90;;;;;;4168631;28;20111;-68
2021/04/08 02:20:33;;;;;;;8.00;2.15;;;3.30;99.90;;;;;;4162019;28;20068;-69
2021/04/08 02:22:34;;;;;;;9.70;2.35;;;3.30;99.90;;;;;;4161790;28;20116;-69
2021/04/08 02:24:37;;;;;;;6.70;2.25;;;3.30;99.90;;;;;;4161653;28;20087;-69
2021/04/08 02:26:42;;;;;;;6.05;1.95;;;3.30;99.90;;;;;;4161761;28;20073;-69
2021/04/08 02:28:43;;;;;;;7.38;2.15;;;3.30;99.90;;;;;;4160784;28;20038;-68
2021/04/08 02:30:46;;;;;;;9.32;2.22;;;3.30;99.90;;;;;;4177306;28;20557;-69
2021/04/08 02:32:47;;;;;;;5.55;1.90;;;3.30;99.90;;;;;;4176631;28;20033;-68
2021/04/08 02:34:48;;;;;;;7.10;2.25;;;3.30;99.90;;;;;;4161097;28;20114;-69
2021/04/08 02:36:49;;;;;;;5.68;1.85;;;3.30;99.90;;;;;;4161904;28;20157;-68
2021/04/08 02:38:50;;;;;;;9.45;2.15;;;3.40;99.90;;;;;;4161601;28;20034;-69
2021/04/08 02:40:51;;;;;;;8.68;1.83;;;3.30;99.90;;;;;;4165996;28;20120;-68
2021/04/08 02:42:51;;;;;;;9.02;2.08;;;3.30;99.90;;;;;;4161740;28;20033;-68
2021/04/08 02:44:53;;;;;;;7.55;1.92;;;3.30;99.90;;;;;;4161391;28;20056;-69
2021/04/08 02:46:53;;;;;;;5.57;1.73;;;3.30;99.90;;;;;;4160820;28;20394;-69
2021/04/08 02:48:56;;;;;;;8.55;2.15;;;3.30;99.90;;;;;;4161971;28;20029;-69
2021/04/08 02:51:01;;;;;;;4.57;1.40;;;3.30;99.90;;;;;;4193250;28;20720;-69
2021/04/08 02:53:25;;;;;;;6.38;1.75;;;3.30;99.90;;;;;;4161233;28;20041;-69
2021/04/08 02:55:38;;;;;;;6.07;1.60;;;3.30;99.90;;;;;;4164358;28;20044;-69
2021/04/08 02:57:58;;;;;;;5.18;1.42;;;3.30;99.90;;;;;;4161609;28;20037;-69
2021/04/08 03:00:10;;;;;;;5.22;1.63;;;3.40;99.90;;;;;;4160330;28;20132;-69
2021/04/08 03:02:13;;;;;;;9.00;1.67;;;3.40;99.90;;;;;;4175208;28;20067;-69
2021/04/08 03:04:17;;;;;;;3.10;1.20;;;3.40;99.90;;;;;;4153881;28;20045;-68
2021/04/08 03:06:20;;;;;;;6.80;2.03;;;3.40;99.90;;;;;;4162901;28;20100;-69
2021/04/08 03:08:21;;;;;;;8.65;1.98;;;3.40;99.90;;;;;;4159556;28;20114;-68
2021/04/08 03:10:23;;;;;;;4.18;1.50;;;3.40;99.90;;;;;;4160739;28;20915;-68
2021/04/08 03:12:28;;;;;;;7.00;1.50;;;3.40;99.90;;;;;;4160510;28;20036;-69
2021/04/08 03:14:31;;;;;;;4.45;1.42;;;3.40;99.90;;;;;;4162001;28;20165;-69
2021/04/08 03:16:37;;;;;;;6.88;1.35;;;3.40;99.90;;;;;;4176447;28;20044;-69
2021/04/08 03:18:41;;;;;;;4.20;1.58;;;3.40;99.90;;;;;;4163139;28;20112;-69
2021/04/08 03:20:48;;;;;;;5.53;1.50;;;3.40;99.90;;;;;;4160995;28;20061;-68
2021/04/08 03:22:52;;;;;;;5.32;1.70;;;3.40;99.90;;;;;;4167750;28;20040;-69
2021/04/08 03:24:55;;;;;;;7.57;1.65;;;3.40;99.90;;;;;;4158819;28;20525;-69
2021/04/08 03:26:57;;;;;;;5.10;1.48;;;3.30;99.90;;;;;;4190968;28;20033;-69
2021/04/08 03:28:58;;;;;;;6.40;1.52;;;3.30;99.90;;;;;;4174533;28;20033;-69
2021/04/08 03:31:02;;;;;;;7.55;1.50;;;3.30;99.90;;;;;;4160945;28;20068;-69
2021/04/08 03:33:03;;;;;;;5.82;1.55;;;3.30;99.90;;;;;;4161110;28;20048;-69
2021/04/08 03:35:06;;;;;;;6.15;1.55;;;3.30;99.90;;;;;;4160021;28;20041;-68
2021/04/08 03:37:07;;;;;;;6.57;1.83;;;3.30;99.90;;;;;;4163391;28;20440;-69
2021/04/08 03:39:09;;;;;;;6.80;1.90;;;3.30;99.90;;;;;;4161113;28;20037;-69
2021/04/08 03:41:11;;;;;;;7.23;1.90;;;3.30;99.90;;;;;;4174384;28;20087;-69
2021/04/08 03:43:13;;;;;;;6.60;1.85;;;3.30;99.90;;;;;;4159932;28;20299;-69
2021/04/08 03:45:14;;;;;;;6.50;1.55;;;3.30;99.90;;;;;;4160070;28;20053;-69
2021/04/08 03:47:15;;;;;;;4.97;1.40;;;3.30;99.90;;;;;;4174855;28;20060;-69
2021/04/08 03:49:17;;;;;;;8.82;1.88;;;3.30;99.90;;;;;;4160832;28;20060;-69
2021/04/08 03:51:21;;;;;;;9.65;1.92;;;3.40;99.90;;;;;;4162948;28;20034;-69
2021/04/08 03:53:23;;;;;;;7.75;2.10;;;3.40;99.90;;;;;;4160546;28;20457;-69
2021/04/08 03:55:25;;;;;;;6.75;2.00;;;3.40;99.90;;;;;;4160542;28;20041;-69
2021/04/08 03:57:26;;;;;;;7.20;2.00;;;3.40;99.90;;;;;;4160723;28;20041;-69
2021/04/08 03:59:29;;;;;;;6.97;2.10;;;3.40;99.90;;;;;;4160193;28;20397;-68
2021/04/08 04:01:31;;;;;;;9.15;2.50;;;3.40;99.90;;;;;;4164278;28;20036;-68
2021/04/08 04:03:32;;;;;;;9.10;2.33;;;3.40;99.90;;;;;;4166796;28;20037;-69
2021/04/08 04:05:32;;;;;;;4.97;1.65;;;3.50;99.90;;;;;;4158986;28;20038;-69
2021/04/08 04:07:35;;;;;;;7.50;1.85;;;3.40;99.90;;;;;;4163942;28;20037;-68
2021/04/08 04:09:37;;;;;;;9.73;2.20;;;3.50;99.90;;;;;;4158988;28;20034;-69
2021/04/08 04:11:45;;;;;;;8.00;1.98;;;3.50;99.90;;;;;;4159325;28;20080;-69
2021/04/08 04:13:48;;;;;;;6.75;1.75;;;3.50;99.90;;;;;;4160067;28;20048;-68
2021/04/08 04:15:50;;;;;;;6.63;2.00;;;3.60;99.90;;;;;;4159024;28;20359;-69
2021/04/08 04:17:51;;;;;;;6.70;1.45;;;3.60;99.90;;;;;;4159867;28;20041;-69
2021/04/08 04:19:52;;;;;;;4.35;2.03;;;3.60;99.90;;;;;;4160325;28;20087;-68
2021/04/08 04:21:53;;;;;;;7.65;2.22;;;3.60;99.90;;;;;;4157826;28;20029;-69
2021/04/08 04:23:54;;;;;;;6.03;2.20;;;3.60;99.90;;;;;;4174447;28;20037;-69
2021/04/08 04:25:55;;;;;;;9.80;1.85;;;3.70;99.90;;;;;;4160178;28;20398;-69
2021/04/08 04:27:55;;;;;;;6.53;2.13;;;3.70;99.90;;;;;;4159396;28;20029;-68
2021/04/08 04:29:56;;;;;;;4.43;1.63;;;3.70;99.90;;;;;;4174971;28;20029;-68
2021/04/08 04:31:57;;;;;;;5.95;1.80;;;3.70;99.90;;;;;;4160118;28;20029;-68
2021/04/08 04:33:57;;;;;;;8.60;2.20;;;3.80;99.90;;;;;;4159344;28;20034;-69
2021/04/08 04:35:58;;;;;;;10.50;2.47;;;3.80;99.90;;;;;;4172367;28;20036;-69
2021/04/08 04:37:58;;;;;;;10.07;2.53;;;3.80;99.90;;;;;;4190041;28;20044;-69
2021/04/08 04:39:59;;;;;;;8.15;2.75;;;3.80;99.90;;;;;;4157856;28;21951;-69
2021/04/08 04:42:01;;;;;;;7.22;2.15;;;3.80;99.90;;;;;;4159644;28;20443;-69
2021/04/08 04:44:02;;;;;;;4.45;1.90;;;3.80;99.90;;;;;;4159303;28;20032;-69
2021/04/08 04:46:03;;;;;;;9.02;2.53;;;3.80;99.90;;;;;;4156510;28;20548;-69
2021/04/08 04:48:04;;;;;;;8.27;2.58;;;3.80;99.90;;;;;;4159307;28;20053;-69
2021/04/08 04:50:06;;;;;;;6.43;2.58;;;3.80;99.90;;;;;;4159623;28;20040;-69
2021/04/08 04:52:06;;;;;;;8.70;2.40;;;3.80;99.90;;;;;;4155253;28;20478;-69
2021/04/08 04:54:07;;;;;;;9.82;2.58;;;3.80;99.90;;;;;;4143536;28;20038;-69
2021/04/08 04:56:08;;;;;;;6.53;2.58;;;3.80;99.90;;;;;;4195627;28;20032;-69
2021/04/08 04:58:08;;;;;;;6.55;2.40;;;3.80;99.90;;;;;;4165526;28;20034;-69
2021/04/08 05:00:09;;;;;;;6.13;2.42;;;3.90;99.90;;;;;;4168346;28;20041;-69
2021/04/08 05:02:10;;;;;;;5.50;2.05;;;3.90;99.90;;;;;;4159386;28;20124;-69
2021/04/08 05:04:11;;;;;;;6.72;2.22;;;4.00;99.90;;;;;;4160189;28;20498;-69
2021/04/08 05:06:12;;;;;;;14.07;2.67;;;4.00;99.90;;;;;;4158809;28;20029;-69
2021/04/08 05:08:13;;;;;;;8.25;2.50;;;3.90;99.90;;;;;;4137063;28;20023;-69
2021/04/08 05:10:13;;;;;;;7.75;2.35;;;4.00;99.90;;;;;;4159558;28;20965;-69
2021/04/08 05:12:14;;;;;;;5.47;2.30;;;4.00;99.90;;;;;;4153588;28;20034;-69
2021/04/08 05:14:14;;;;;;;7.85;2.60;;;4.00;99.90;;;;;;4161254;28;20037;-69
2021/04/08 05:16:15;;;;;;;7.43;2.85;;;4.00;99.90;;;;;;4165745;28;20120;-69
2021/04/08 05:18:16;;;;;;;8.38;2.42;;;4.00;99.90;;;;;;4161652;28;20096;-69
2021/04/08 05:20:16;;;;;;;7.05;3.00;;;4.00;99.90;;;;;;4173819;28;20032;-69
2021/04/08 05:22:17;;;;;;;5.38;2.63;;;4.00;99.90;;;;;;4153591;28;20060;-69
2021/04/08 05:24:18;;;;;;;7.80;2.88;;;4.00;99.90;;;;;;4155744;28;20469;-69
2021/04/08 05:26:18;;;;;;;6.72;3.15;;;4.00;99.90;;;;;;4159389;28;20086;-69
2021/04/08 05:28:19;;;;;;;6.65;3.05;;;3.90;99.90;;;;;;4158326;28;20026;-69
2021/04/08 05:30:20;;;;;;;9.77;3.35;;;4.00;99.90;;;;;;4159173;28;20517;-69
2021/04/08 05:32:20;;;;;;;9.60;3.63;;;3.90;99.90;;;;;;4158539;28;20164;-69
2021/04/08 05:34:21;;;;;;;10.63;3.80;;;3.90;99.90;;;;;;4156817;28;20168;-69
2021/04/08 05:36:22;;;;;;;9.05;3.83;;;3.90;99.90;;;;;;4138117;28;20045;-69
2021/04/08 05:38:22;;;;;;;11.65;3.80;;;3.90;99.90;;;;;;4158969;28;20029;-69
2021/04/08 05:40:23;;;;;;;12.48;4.47;;;3.90;99.90;;;;;;4158746;28;20474;-69
2021/04/08 05:42:24;;;;;;;9.23;4.22;;;3.90;99.90;;;;;;4158847;28;20030;-69
2021/04/08 05:44:25;;;;;;;10.25;4.07;;;3.90;99.90;;;;;;4158244;28;20115;-69
2021/04/08 05:46:25;;;;;;;11.25;4.35;;;3.90;99.90;;;;;;4157346;28;20088;-69
2021/04/08 05:48:26;;;;;;;10.93;4.43;;;3.90;99.90;;;;;;4177480;28;20029;-69
2021/04/08 05:50:26;;;;;;;8.70;4.22;;;3.90;99.90;;;;;;4162619;28;20040;-69
2021/04/08 05:52:27;;;;;;;10.95;4.57;;;3.90;99.90;;;;;;4162146;28;20117;-69
2021/04/08 05:54:28;;;;;;;13.55;4.95;;;4.00;99.90;;;;;;4165988;28;20124;-69
2021/04/08 05:56:28;;;;;;;14.77;4.60;;;4.00;99.90;;;;;;4168483;28;20048;-68
2021/04/08 05:58:29;;;;;;;10.15;5.30;;;4.00;99.90;;;;;;4160584;28;20075;-69
2021/04/08 06:00:30;;;;;;;11.00;4.38;;;4.00;99.90;;;;;;4161396;28;20037;-69
2021/04/08 06:02:32;;;;;;;11.80;4.95;;;4.00;99.90;;;;;;4158454;28;20045;-69
2021/04/08 06:04:32;;;;;;;9.68;4.95;;;4.00;99.90;;;;;;4159134;28;20041;-69
2021/04/08 06:06:33;;;;;;;11.40;4.40;;;4.00;99.90;;;;;;4161649;28;20037;-69
2021/04/08 06:08:34;;;;;;;9.15;4.60;;;4.00;99.90;;;;;;4159475;28;20041;-69
2021/04/08 06:10:34;;;;;;;10.27;5.07;;;4.00;99.90;;;;;;4161473;28;20033;-69
2021/04/08 06:12:39;;;;;;;10.60;5.38;;;4.00;99.90;;;;;;4162087;28;20037;-69
2021/04/08 06:14:39;;;;;;;14.13;4.88;;;4.00;99.90;;;;;;4159804;28;20073;-69
2021/04/08 06:16:40;;;;;;;9.73;4.47;;;4.10;99.90;;;;;;4161970;28;20057;-69
2021/04/08 06:18:40;;;;;;;10.60;5.03;;;4.10;99.90;;;;;;4161473;28;20049;-69
2021/04/08 06:20:41;;;;;;;11.65;5.07;;;4.10;99.90;;;;;;4164336;28;20103;-69
2021/04/08 06:22:42;;;;;;;11.77;4.85;;;4.10;99.90;;;;;;4161575;28;20040;-70
2021/04/08 06:24:43;;;;;;;11.40;5.38;;;4.20;99.90;;;;;;4160607;28;20132;-70
2021/04/08 06:26:43;;;;;;;8.50;4.47;;;4.10;99.90;;;;;;4166960;28;20060;-70
2021/04/08 06:28:44;;;;;;;13.55;5.45;;;4.10;99.90;;;;;;4159661;28;20041;-70
2021/04/08 06:30:46;;;;;;;10.43;5.22;;;4.20;99.90;;;;;;4161231;28;20034;-70
2021/04/08 06:32:47;;;;;;;10.63;5.30;;;4.20;99.90;;;;;;4161669;28;20045;-70
2021/04/08 06:34:47;;;;;;;13.15;5.50;;;4.20;99.90;;;;;;4161861;28;20037;-69
2021/04/08 06:36:48;;;;;;;9.85;4.50;;;4.20;99.90;;;;;;4161155;28;20066;-69
2021/04/08 06:38:49;;;;;;;10.30;4.90;;;4.20;99.90;;;;;;4163458;28;20437;-69
2021/04/08 06:40:50;;;;;;;8.75;4.85;;;4.20;99.90;;;;;;4161054;28;20033;-68
2021/04/08 06:42:54;;;;;;;14.00;5.07;;;4.20;99.90;;;;;;4159812;28;20045;-67
2021/04/08 06:44:57;;;;;;;10.73;4.60;;;4.20;99.90;;;;;;4169549;28;20646;-67
2021/04/08 06:47:02;;;;;;;15.85;6.00;;;4.30;99.90;;;;;;4161308;28;20044;-67
2021/04/08 06:49:33;;;;;;;11.43;5.53;;;4.30;99.90;;;;;;4176284;28;20639;-67
2021/04/08 06:51:36;;;;;;;10.90;4.88;;;4.30;99.90;;;;;;4185059;28;20037;-67
2021/04/08 06:53:38;;;;;;;9.25;4.57;;;4.30;99.90;;;;;;4192116;28;20086;-67
2021/04/08 06:55:42;;;;;;;10.85;5.25;;;4.40;99.90;;;;;;4186974;28;20738;-67
2021/04/08 06:57:43;;;;;;;12.77;5.70;;;4.40;99.90;;;;;;4160027;28;20040;-67
2021/04/08 06:59:45;;;;;;;11.93;5.43;;;4.50;99.90;;;;;;4160690;28;20030;-67
2021/04/08 07:01:47;;;;;;;9.18;5.03;;;4.40;99.90;;;;;;4172853;28;20095;-67
2021/04/08 07:03:48;;;;;;;13.35;5.55;;;4.50;99.90;;;;;;4162187;28;20563;-67
2021/04/08 07:05:48;;;;;;;9.82;4.75;;;4.50;99.90;;;;;;4164195;28;20077;-67
2021/04/08 07:07:49;;;;;;;12.68;5.30;;;4.50;99.90;;;;;;4178623;28;20116;-67
2021/04/08 07:09:50;;;;;;;12.73;5.88;;;4.50;99.90;;;;;;4161169;28;20049;-67
2021/04/08 07:11:52;;;;;;;12.32;5.40;;;4.50;99.90;;;;;;4160588;28;20045;-67
2021/04/08 07:13:53;;;;;;;12.95;5.40;;;4.50;99.90;;;;;;4160181;28;20069;-67
2021/04/08 07:15:57;;;;;;;16.40;6.10;;;4.60;99.90;;;;;;4160822;28;20041;-67
2021/04/08 07:17:58;;;;;;;9.80;4.60;;;4.60;99.90;;;;;;4160664;28;20037;-67
2021/04/08 07:19:59;;;;;;;13.75;5.07;;;4.60;99.90;;;;;;4159976;28;20048;-67
2021/04/08 07:22:00;;;;;;;14.85;5.38;;;4.60;99.90;;;;;;4161152;28;20039;-67
2021/04/08 07:24:12;;;;;;;13.10;5.40;;;4.60;99.90;;;;;;4163978;28;20043;-67
2021/04/08 07:26:14;;;;;;;13.00;5.38;;;4.60;99.90;;;;;;4165664;28;20702;-67
2021/04/08 07:28:39;;;;;;;15.35;5.88;;;4.60;99.90;;;;;;4164428;28;20033;-67
2021/04/08 07:30:40;;;;;;;9.77;5.35;;;4.60;99.90;;;;;;4155721;28;20033;-67
2021/04/08 07:32:41;;;;;;;13.02;5.28;;;4.60;99.90;;;;;;4160555;28;20086;-67
2021/04/08 07:34:47;;;;;;;11.88;4.80;;;4.60;99.90;;;;;;4160138;28;20030;-67
2021/04/08 07:36:53;;;;;;;9.82;4.50;;;4.70;99.90;;;;;;4160615;28;20037;-67
2021/04/08 07:38:55;;;;;;;12.90;5.85;;;4.70;99.90;;;;;;4160459;28;20030;-67
2021/04/08 07:40:58;;;;;;;11.07;5.13;;;4.80;99.90;;;;;;4164908;28;20498;-67
2021/04/08 07:43:14;;;;;;;11.98;4.78;;;4.80;99.90;;;;;;4158711;28;20030;-67
2021/04/08 07:45:41;;;;;;;14.25;5.28;;;4.90;99.90;;;;;;4174891;28;20036;-67
2021/04/08 07:47:43;;;;;;;11.55;4.90;;;4.90;99.90;;;;;;4158182;28;20403;-67
2021/04/08 07:49:44;;;;;;;10.80;5.63;;;4.90;99.90;;;;;;4166323;28;20033;-67
2021/04/08 07:51:45;;;;;;;11.48;4.82;;;5.00;99.90;;;;;;4177037;28;20562;-67
2021/04/08 07:54:06;;;;;;;9.07;4.53;;;5.00;99.90;;;;;;4159849;28;20037;-67
2021/04/08 07:56:30;;;;;;;11.48;4.93;;;5.10;99.90;;;;;;4164672;28;20045;-67
2021/04/08 07:58:30;;;;;;;10.82;4.65;;;5.20;99.90;;;;;;4156480;28;20140;-67
2021/04/08 08:00:34;;;;;;;10.30;4.80;;;5.20;99.90;;;;;;4156912;28;20210;-67
2021/04/08 08:02:39;;;;;;;7.63;4.28;;;5.20;99.90;;;;;;4155609;28;20052;-67
2021/04/08 08:04:40;;;;;;;9.25;4.82;;;5.30;99.90;;;;;;4157807;28;20128;-67
2021/04/08 08:06:40;;;;;;;8.75;4.15;;;5.30;99.90;;;;;;4190476;28;20082;-67
2021/04/08 08:08:44;;;;;;;9.88;3.88;;;5.40;99.90;;;;;;4158659;28;20038;-67
2021/04/08 08:11:10;;;;;;;9.50;4.55;;;5.40;99.90;;;;;;4158050;28;20119;-67
2021/04/08 08:13:26;;;;;;;9.20;4.30;;;5.50;99.90;;;;;;4159290;28;20465;-67
2021/04/08 08:15:28;;;;;;;7.82;4.38;;;5.50;99.90;;;;;;4154107;28;20628;-67
2021/04/08 08:17:35;;;;;;;8.70;4.40;;;5.50;99.90;;;;;;4174596;28;20048;-67
2021/04/08 08:19:37;;;;;;;6.40;3.78;;;5.60;99.90;;;;;;4159523;28;20041;-67
2021/04/08 08:21:40;;;;;;;7.80;3.90;;;5.60;99.90;;;;;;4159564;28;20041;-67
2021/04/08 08:23:48;;;;;;;9.27;4.22;;;5.60;99.90;;;;;;4164198;28;20095;-67
2021/04/08 08:25:48;;;;;;;8.55;3.90;;;5.70;99.90;;;;;;4159027;28;20077;-67
2021/04/08 08:27:51;;;;;;;8.55;3.92;;;5.70;99.90;;;;;;4165541;28;20456;-67
2021/04/08 08:29:58;;;;;;;7.75;3.63;;;5.80;99.90;;;;;;4190238;28;20039;-67
2021/04/08 08:32:02;;;;;;;9.48;4.35;;;5.90;99.90;;;;;;4162740;28;20037;-67
2021/04/08 08:34:09;;;;;;;10.82;4.07;;;5.90;99.90;;;;;;4157880;28;20029;-67
2021/04/08 08:36:10;;;;;;;10.27;4.05;;;6.00;99.90;;;;;;4163539;28;20056;-67
2021/04/08 08:38:14;;;;;;;8.90;3.58;;;6.00;99.90;;;;;;4163996;28;20029;-67
2021/04/08 08:40:14;;;;;;;9.00;4.30;;;6.10;99.90;;;;;;4158622;28;20033;-67
2021/04/08 08:42:18;;;;;;;8.82;3.80;;;6.10;99.90;;;;;;4187986;28;20595;-67
2021/04/08 08:44:20;;;;;;;6.80;3.65;;;6.10;99.90;;;;;;4158606;28;20612;-67
2021/04/08 08:46:23;;;;;;;8.07;3.58;;;6.30;99.90;;;;;;4159201;28;20033;-67
2021/04/08 08:48:24;;;;;;;11.70;4.13;;;6.30;99.90;;;;;;4159176;28;20029;-67
2021/04/08 08:50:24;;;;;;;8.48;3.45;;;6.40;99.90;;;;;;4162617;28;20029;-67
2021/04/08 08:52:26;;;;;;;8.43;3.40;;;6.60;99.90;;;;;;4160779;28;20030;-67
2021/04/08 08:54:29;;;;;;;11.90;3.77;;;6.70;99.90;;;;;;4162436;28;20114;-67
2021/04/08 08:56:32;;;;;;;5.40;3.00;;;6.80;99.90;;;;;;4163022;28;20710;-67
2021/04/08 08:58:33;;;;;;;10.85;3.53;;;7.00;99.90;;;;;;4158004;28;20052;-67
2021/04/08 09:00:34;;;;;;;8.50;3.05;;;7.10;99.90;;;;;;4159100;28;20034;-67
2021/04/08 09:02:36;;;;;;;7.75;3.00;;;7.10;99.90;;;;;;4158707;28;20505;-67
2021/04/08 09:04:37;;;;;;;6.25;3.17;;;7.20;99.90;;;;;;4158262;28;20526;-67
2021/04/08 09:06:41;;;;;;;6.35;2.97;;;7.40;99.90;;;;;;4158708;28;20029;-67
2021/04/08 09:08:49;;;;;;;5.82;2.72;;;7.50;99.90;;;;;;4158663;28;20033;-67
2021/04/08 09:10:50;;;;;;;6.72;2.83;;;7.50;99.90;;;;;;4157907;28;20079;-67
2021/04/08 09:12:51;;;;;;;5.20;2.58;;;7.60;99.90;;;;;;4158782;28;20030;-67
2021/04/08 09:14:54;;;;;;;5.68;2.47;;;7.60;99.90;;;;;;4190157;28;20042;-67
2021/04/08 09:16:55;;;;;;;3.95;2.50;;;7.60;99.90;;;;;;4158451;28;20132;-67
2021/04/08 09:19:11;;;;;;;5.68;2.50;;;7.70;99.90;;;;;;4157647;28;20049;-66
2021/04/08 09:21:12;;;;;;;6.65;2.70;;;7.70;99.90;;;;;;4158511;28;20037;-67
2021/04/08 09:23:17;;;;;;;9.93;2.90;;;7.70;99.90;;;;;;4157785;28;20033;-67
2021/04/08 09:25:20;;;;;;;4.75;2.70;;;7.70;99.90;;;;;;4145882;28;20045;-67
2021/04/08 09:27:22;;;;;;;6.05;2.72;;;7.70;99.90;;;;;;4159757;28;20826;-67
2021/04/08 09:29:35;;;;;;;6.22;2.83;;;7.70;99.90;;;;;;4172479;28;20079;-67
2021/04/08 09:31:36;;;;;;;5.05;2.50;;;7.70;99.90;;;;;;4161672;28;20049;-67
2021/04/08 09:33:42;;;;;;;4.25;2.50;;;7.70;99.90;;;;;;4158423;28;20083;-66
2021/04/08 09:35:44;;;;;;;5.85;2.83;;;7.60;99.90;;;;;;4158356;28;20092;-67
2021/04/08 09:37:47;;;;;;;4.13;2.67;;;7.50;99.90;;;;;;4169936;28;20053;-67
2021/04/08 09:39:48;;;;;;;6.30;2.50;;;7.40;99.90;;;;;;4191516;28;20025;-67
2021/04/08 09:42:03;;;;;;;5.43;2.58;;;7.40;99.90;;;;;;4158538;28;20052;-67
2021/04/08 09:44:04;;;;;;;7.95;3.17;;;7.40;99.90;;;;;;4156592;28;20112;-67
2021/04/08 09:46:10;;;;;;;5.68;2.58;;;7.40;99.90;;;;;;4158658;28;20029;-67
2021/04/08 09:48:15;;;;;;;5.90;3.17;;;7.30;99.90;;;;;;4154106;28;20026;-67
2021/04/08 09:50:46;;;;;;;6.72;3.08;;;7.30;99.90;;;;;;4157646;28;20056;-67
2021/04/08 09:52:56;;;;;;;5.93;3.13;;;7.30;99.90;;;;;;4157789;28;20034;-67
2021/04/08 09:54:58;;;;;;;11.48;3.08;;;7.20;99.90;;;;;;4157698;28;20092;-67
2021/04/08 09:56:59;;;;;;;4.70;2.70;;;7.20;99.90;;;;;;4157186;28;20589;-67
2021/04/08 09:58:59;;;;;;;7.90;2.63;;;7.20;99.90;;;;;;4158866;28;20040;-67
2021/04/08 10:01:02;;;;;;;6.00;3.25;;;7.20;99.90;;;;;;4158456;28;20482;-67
2021/04/08 10:03:07;;;;;;;6.20;2.63;;;7.20;99.90;;;;;;4158736;28;20042;-67
2021/04/08 10:05:10;;;;;;;6.70;2.88;;;7.20;99.90;;;;;;4156986;28;20501;-67
2021/04/08 10:07:10;;;;;;;3.22;2.00;;;7.20;99.90;;;;;;4157767;28;20095;-67
2021/04/08 10:09:16;;;;;;;4.90;2.47;;;7.20;99.90;;;;;;4158509;28;20037;-67
2021/04/08 10:11:29;;;;;;;4.75;2.45;;;7.20;95.60;;;;;;4166027;28;20632;-67
2021/04/08 10:13:31;;;;;;;6.93;2.95;;;7.20;99.90;;;;;;4176131;28;20025;-67
2021/04/08 10:15:34;;;;;;;4.95;2.10;;;7.30;99.50;;;;;;4157187;28;20038;-67
2021/04/08 10:17:38;;;;;;;6.15;2.40;;;7.30;97.10;;;;;;4157891;28;20034;-67
2021/04/08 10:19:43;;;;;;;7.13;2.55;;;7.40;99.90;;;;;;4157156;28;20045;-67
2021/04/08 10:21:44;;;;;;;5.68;2.72;;;7.40;99.90;;;;;;4158152;28;20076;-67
2021/04/08 10:23:48;;;;;;;7.80;2.45;;;7.40;95.20;;;;;;4157931;28;20389;-67
2021/04/08 10:25:56;;;;;;;4.07;2.10;;;7.50;99.90;;;;;;4157787;28;20178;-67
2021/04/08 10:27:57;;;;;;;7.22;2.30;;;7.50;98.10;;;;;;4165236;28;20038;-67
2021/04/08 10:29:57;;;;;;;5.38;2.72;;;7.50;93.10;;;;;;4158409;28;20040;-67
2021/04/08 10:31:59;;;;;;;3.78;2.53;;;7.50;92.20;;;;;;4158013;28;20037;-67
2021/04/08 10:34:06;;;;;;;6.80;2.50;;;7.50;96.80;;;;;;4159208;28;20060;-67
2021/04/08 10:36:07;;;;;;;6.13;2.80;;;7.50;94.40;;;;;;4161694;28;20074;-67
2021/04/08 10:38:08;;;;;;;3.17;2.03;;;7.50;93.80;;;;;;4160606;28;20025;-67
2021/04/08 10:40:09;;;;;;;8.48;2.78;;;7.60;95.10;;;;;;4156821;28;20486;-67
2021/04/08 10:42:12;;;;;;;4.75;2.80;;;7.60;95.90;;;;;;4159322;28;20061;-67
2021/04/08 10:44:38;;;;;;;;;;;7.60;93.30;;;;;;4161379;28;20743;-67
2021/04/08 10:46:43;;;;;;;5.90;3.05;;;7.60;90.90;;;;;;4125638;28;20419;-67
2021/04/08 10:48:44;;;;;;;4.43;2.80;;;7.50;90.40;;;;;;4158176;28;20060;-67